Time;durP1;ratioP1;P1;durP2;ratioP2;P2;SDS_P1;SDS_P2;PMS_P1;PMS_P2;Temp;Humidity;BMP_temperature;BMP_pressure;BME280_temperature;BME280_humidity;BME280_pressure;Samples;Min_cycle;Max_cycle;Signal;HPM_P1;HPM_P2
2023/04/11 00:02:11;;;;;;;22.45;6.00;;;8.10;99.90;;;;;;5056957;28;20053;-47
2023/04/11 00:04:37;;;;;;;25.20;4.88;;;8.10;99.90;;;;;;5039762;28;20053;-42
2023/04/11 00:07:04;;;;;;;23.65;5.63;;;8.00;99.90;;;;;;5057564;28;20075;-42
2023/04/11 00:09:30;;;;;;;27.23;5.00;;;8.00;99.90;;;;;;5057502;28;20067;-46
2023/04/11 00:11:56;;;;;;;18.92;3.92;;;8.00;99.90;;;;;;5043111;28;20047;-39
2023/04/11 00:14:22;;;;;;;22.20;4.63;;;8.00;99.90;;;;;;5077915;28;20082;-38
2023/04/11 00:16:48;;;;;;;23.48;3.70;;;8.00;99.90;;;;;;5059220;28;20044;-46
2023/04/11 00:19:15;;;;;;;20.48;3.83;;;7.90;99.90;;;;;;5057999;28;20048;-46
2023/04/11 00:21:42;;;;;;;21.00;4.28;;;7.90;99.90;;;;;;5076025;28;20070;-39
2023/04/11 00:24:08;;;;;;;15.07;3.08;;;7.80;99.90;;;;;;5069991;28;20099;-40
2023/04/11 00:26:34;;;;;;;13.63;3.60;;;7.80;99.90;;;;;;5073879;28;20150;-42
2023/04/11 00:29:00;;;;;;;10.23;2.42;;;7.70;99.90;;;;;;5059230;28;20455;-43
2023/04/11 00:31:26;;;;;;;12.80;2.42;;;7.70;99.90;;;;;;5054989;28;20051;-39
2023/04/11 00:33:51;;;;;;;11.27;2.53;;;7.70;99.90;;;;;;5058419;28;20137;-47
2023/04/11 00:36:17;;;;;;;10.88;2.15;;;7.70;99.90;;;;;;5074311;28;20052;-39
2023/04/11 00:38:43;;;;;;;11.15;2.42;;;7.70;99.90;;;;;;5077522;28;20056;-40
2023/04/11 00:41:09;;;;;;;9.10;2.55;;;7.70;99.90;;;;;;5029685;28;20582;-45
2023/04/11 00:43:35;;;;;;;12.80;2.38;;;7.70;99.90;;;;;;5077018;28;20051;-44
2023/04/11 00:46:02;;;;;;;15.23;2.42;;;7.70;99.90;;;;;;5076319;28;20362;-41
2023/04/11 00:48:28;;;;;;;13.15;3.00;;;7.70;99.90;;;;;;5077606;28;20120;-40
2023/04/11 00:50:54;;;;;;;14.07;2.20;;;7.70;99.90;;;;;;5077165;28;20059;-44
2023/04/11 00:53:21;;;;;;;8.90;2.67;;;7.70;99.90;;;;;;5078034;28;20394;-40
2023/04/11 00:55:47;;;;;;;14.68;3.17;;;7.70;99.90;;;;;;5075947;28;20051;-38
2023/04/11 00:58:15;;;;;;;14.55;2.20;;;7.70;99.90;;;;;;5046751;28;20390;-38
2023/04/11 01:00:41;;;;;;;12.88;2.38;;;7.70;99.90;;;;;;5077425;28;20420;-37
2023/04/11 01:03:07;;;;;;;10.55;1.73;;;7.80;99.90;;;;;;5046705;28;20433;-36
2023/04/11 01:05:35;;;;;;;6.60;1.80;;;7.80;99.90;;;;;;5075378;28;20136;-42
2023/04/11 01:08:01;;;;;;;19.42;2.40;;;7.80;99.90;;;;;;5076855;28;20048;-41
2023/04/11 01:10:29;;;;;;;7.57;1.70;;;7.80;99.90;;;;;;5057493;28;20048;-36
2023/04/11 01:12:58;;;;;;;8.18;1.48;;;7.80;99.90;;;;;;5068888;28;20119;-42
2023/04/11 01:15:24;;;;;;;7.00;2.13;;;7.80;99.90;;;;;;5075430;28;20164;-46
2023/04/11 01:17:51;;;;;;;7.38;1.48;;;7.90;99.90;;;;;;5074311;28;20055;-43
2023/04/11 01:20:18;;;;;;;7.57;1.77;;;7.90;99.90;;;;;;5077338;28;20174;-38
2023/04/11 01:22:46;;;;;;;11.80;2.28;;;7.90;99.90;;;;;;5077139;28;20044;-45
2023/04/11 01:25:13;;;;;;;8.35;2.03;;;7.90;99.90;;;;;;5075305;28;20072;-51
2023/04/11 01:27:41;;;;;;;11.27;1.77;;;7.90;99.90;;;;;;5058358;28;20604;-44
2023/04/11 01:30:07;;;;;;;8.55;1.58;;;7.90;99.90;;;;;;5077107;28;20489;-39
2023/04/11 01:32:34;;;;;;;10.70;2.28;;;7.90;99.90;;;;;;5049977;28;20076;-36
2023/04/11 01:35:01;;;;;;;8.23;1.60;;;7.90;99.90;;;;;;5054927;28;20565;-46
2023/04/11 01:37:26;;;;;;;9.27;1.67;;;7.80;99.90;;;;;;5039273;28;20487;-38
2023/04/11 01:39:52;;;;;;;7.72;1.60;;;7.80;99.90;;;;;;5077245;28;20160;-46
2023/04/11 01:42:19;;;;;;;8.13;1.63;;;7.80;99.90;;;;;;5077170;28;20063;-36
2023/04/11 01:44:46;;;;;;;8.77;1.90;;;7.80;99.90;;;;;;5076110;28;20387;-42
2023/04/11 01:47:11;;;;;;;9.63;2.22;;;7.70;99.90;;;;;;5075767;28;20052;-47
2023/04/11 01:49:37;;;;;;;12.38;2.55;;;7.80;99.90;;;;;;5057948;28;20411;-36
2023/04/11 01:52:03;;;;;;;9.52;2.60;;;7.70;99.90;;;;;;5075766;28;20122;-47
2023/04/11 01:54:28;;;;;;;8.73;1.40;;;7.70;99.90;;;;;;5075391;28;20048;-43
2023/04/11 01:56:54;;;;;;;13.05;2.08;;;7.70;99.90;;;;;;5057552;28;20044;-44
2023/04/11 01:59:20;;;;;;;10.63;2.00;;;7.70;99.90;;;;;;5058592;28;20048;-43
2023/04/11 02:01:46;;;;;;;4.57;1.73;;;7.70;99.90;;;;;;5056717;28;20049;-47
2023/04/11 02:04:11;;;;;;;8.98;1.50;;;7.60;99.90;;;;;;5076256;28;20066;-48
2023/04/11 02:06:37;;;;;;;6.63;1.60;;;7.60;99.90;;;;;;5054757;28;20052;-40
2023/04/11 02:09:03;;;;;;;4.40;1.45;;;7.60;99.90;;;;;;5068783;28;20718;-36
2023/04/11 02:11:29;;;;;;;6.55;1.20;;;7.50;99.90;;;;;;5055426;28;20058;-42
2023/04/11 02:13:55;;;;;;;3.78;1.05;;;7.50;99.90;;;;;;5056283;28;20511;-41
2023/04/11 02:16:24;;;;;;;5.72;1.40;;;7.50;99.90;;;;;;5065688;28;20055;-47
2023/04/11 02:18:51;;;;;;;7.07;1.98;;;7.50;99.90;;;;;;5076303;28;20082;-43
2023/04/11 02:21:16;;;;;;;4.22;1.50;;;7.50;99.90;;;;;;5057279;28;20506;-45
2023/04/11 02:23:42;;;;;;;5.18;1.92;;;7.50;99.90;;;;;;5075662;28;20046;-46
2023/04/11 02:26:08;;;;;;;9.32;1.30;;;7.50;99.90;;;;;;5074855;28;20051;-38
2023/04/11 02:28:35;;;;;;;4.32;1.10;;;7.40;99.90;;;;;;5076007;28;20059;-36
2023/04/11 02:31:02;;;;;;;8.77;1.38;;;7.40;99.90;;;;;;5075734;28;20047;-45
2023/04/11 02:33:27;;;;;;;6.35;1.20;;;7.40;99.90;;;;;;5068508;28;20136;-37
2023/04/11 02:35:53;;;;;;;4.88;1.23;;;7.40;99.90;;;;;;5073923;28;20503;-37
2023/04/11 02:38:19;;;;;;;5.13;1.27;;;7.40;99.90;;;;;;5075682;28;20071;-40
2023/04/11 02:40:45;;;;;;;4.53;1.35;;;7.40;99.90;;;;;;5075935;28;20048;-45
2023/04/11 02:43:11;;;;;;;7.45;1.48;;;7.40;99.90;;;;;;5075837;28;20044;-36
2023/04/11 02:45:37;;;;;;;8.77;1.50;;;7.50;99.90;;;;;;5074431;28;20113;-45
2023/04/11 02:48:02;;;;;;;9.07;1.80;;;7.40;99.90;;;;;;5075171;28;20567;-37
2023/04/11 02:50:28;;;;;;;9.52;1.88;;;7.50;99.90;;;;;;5074074;28;20093;-41
2023/04/11 02:52:54;;;;;;;10.80;1.85;;;7.50;99.90;;;;;;5075264;28;20492;-42
2023/04/11 02:55:22;;;;;;;9.63;1.77;;;7.50;99.90;;;;;;5055972;28;20071;-45
2023/04/11 02:57:48;;;;;;;9.18;2.20;;;7.50;99.90;;;;;;5075366;28;20044;-39
2023/04/11 03:00:14;;;;;;;9.40;2.25;;;7.50;99.90;;;;;;5075047;28;20074;-37
2023/04/11 03:02:40;;;;;;;9.48;1.83;;;7.60;99.90;;;;;;5057755;28;20495;-40
2023/04/11 03:05:07;;;;;;;9.15;1.85;;;7.60;99.90;;;;;;5055149;28;20086;-45
2023/04/11 03:07:33;;;;;;;9.75;2.20;;;7.60;99.90;;;;;;5075063;28;20135;-46
2023/04/11 03:09:59;;;;;;;11.60;2.50;;;7.70;99.90;;;;;;5059918;28;20516;-40
2023/04/11 03:12:25;;;;;;;12.95;3.10;;;7.70;99.90;;;;;;5063640;28;20056;-41
2023/04/11 03:14:51;;;;;;;12.98;3.15;;;7.70;99.90;;;;;;5076890;28;20059;-40
2023/04/11 03:17:17;;;;;;;12.13;2.60;;;7.70;99.90;;;;;;5066979;28;20063;-46
2023/04/11 03:19:43;;;;;;;13.00;2.80;;;7.70;99.90;;;;;;5078412;28;20402;-41
2023/04/11 03:22:10;;;;;;;12.50;2.63;;;7.70;99.90;;;;;;5079121;28;20101;-36
2023/04/11 03:24:39;;;;;;;12.32;2.78;;;7.80;99.90;;;;;;5078287;28;20125;-39
2023/04/11 03:27:05;;;;;;;11.55;2.83;;;7.80;99.90;;;;;;5078148;28;20476;-43
2023/04/11 03:29:31;;;;;;;9.40;2.47;;;7.80;99.90;;;;;;5064757;28;20059;-40
2023/04/11 03:31:58;;;;;;;11.32;2.40;;;7.90;99.90;;;;;;5075381;28;20044;-42
2023/04/11 03:34:24;;;;;;;11.55;2.50;;;7.80;99.90;;;;;;5073297;28;20495;-39
2023/04/11 03:36:51;;;;;;;12.40;2.58;;;7.80;99.90;;;;;;5077989;28;20117;-46
2023/04/11 03:39:18;;;;;;;12.73;2.75;;;7.80;99.90;;;;;;5060474;28;20048;-40
2023/04/11 03:41:44;;;;;;;9.77;2.92;;;7.80;99.90;;;;;;5078767;28;20428;-44
2023/04/11 03:44:09;;;;;;;13.68;3.08;;;7.80;99.90;;;;;;5059388;28;20425;-44
2023/04/11 03:46:35;;;;;;;14.20;3.20;;;7.80;99.90;;;;;;5077953;28;20402;-43
2023/04/11 03:49:01;;;;;;;17.48;3.90;;;7.80;99.90;;;;;;5074948;28;20802;-38
2023/04/11 03:51:26;;;;;;;13.23;3.50;;;7.80;99.90;;;;;;5058217;28;20041;-43
2023/04/11 03:53:52;;;;;;;13.73;3.50;;;7.80;99.90;;;;;;5075167;28;20054;-42
2023/04/11 03:56:18;;;;;;;16.17;2.40;;;7.80;99.90;;;;;;5078465;28;20557;-36
2023/04/11 03:58:43;;;;;;;17.42;3.38;;;7.70;99.90;;;;;;5078588;28;20047;-40
2023/04/11 04:01:09;;;;;;;13.52;3.00;;;7.70;99.90;;;;;;5078370;28;20036;-42
2023/04/11 04:03:35;;;;;;;10.80;2.58;;;7.70;99.90;;;;;;5072994;28;20087;-45
2023/04/11 04:06:00;;;;;;;10.50;2.58;;;7.70;99.90;;;;;;5055195;28;20434;-48
2023/04/11 04:08:26;;;;;;;11.23;2.95;;;7.70;99.90;;;;;;5072072;28;20051;-40
2023/04/11 04:10:51;;;;;;;13.57;3.95;;;7.70;99.90;;;;;;5058592;28;20449;-48
2023/04/11 04:13:17;;;;;;;11.80;3.28;;;7.70;99.90;;;;;;5041881;28;20150;-41
2023/04/11 04:15:43;;;;;;;13.23;2.95;;;7.70;99.90;;;;;;5076923;28;20573;-42
2023/04/11 04:18:09;;;;;;;12.25;3.00;;;7.70;99.90;;;;;;5074914;28;20054;-43
2023/04/11 04:20:34;;;;;;;13.68;2.63;;;7.70;99.90;;;;;;5078329;28;20059;-41
2023/04/11 04:23:03;;;;;;;14.57;3.03;;;7.70;99.90;;;;;;5077712;28;20044;-42
2023/04/11 04:25:29;;;;;;;14.43;3.10;;;7.70;99.90;;;;;;5057976;28;20052;-49
2023/04/11 04:27:56;;;;;;;11.35;2.50;;;7.70;99.90;;;;;;5077373;28;20044;-44
2023/04/11 04:30:22;;;;;;;8.90;2.53;;;7.70;99.90;;;;;;5078333;28;20520;-38
2023/04/11 04:32:53;;;;;;;10.98;2.42;;;7.70;99.90;;;;;;5068040;28;20151;-37
2023/04/11 04:35:19;;;;;;;14.48;3.05;;;7.70;99.90;;;;;;5067100;28;20059;-48
2023/04/11 04:37:45;;;;;;;10.98;2.35;;;7.70;99.90;;;;;;5077411;28;20462;-49
2023/04/11 04:40:19;;;;;;;13.55;2.72;;;7.70;99.90;;;;;;5078699;28;20056;-41
2023/04/11 04:42:48;;;;;;;12.57;2.47;;;7.70;99.90;;;;;;5058819;28;20354;-42
2023/04/11 04:45:15;;;;;;;18.90;3.25;;;7.70;99.90;;;;;;5056914;28;20060;-48
2023/04/11 04:47:40;;;;;;;12.50;2.72;;;7.70;99.90;;;;;;5077585;28;20105;-43
2023/04/11 04:50:07;;;;;;;10.85;2.65;;;7.70;99.90;;;;;;5047107;28;20487;-42
2023/04/11 04:52:32;;;;;;;10.82;2.03;;;7.70;99.90;;;;;;5056833;28;20055;-36
2023/04/11 04:54:58;;;;;;;8.27;2.20;;;7.70;99.90;;;;;;5068318;28;20052;-39
2023/04/11 04:57:28;;;;;;;9.05;2.22;;;7.70;99.90;;;;;;5076778;28;20505;-45
2023/04/11 04:59:54;;;;;;;11.40;3.03;;;7.70;99.90;;;;;;5058827;28;20055;-46
2023/04/11 05:02:20;;;;;;;15.82;3.35;;;7.60;99.90;;;;;;5077151;28;20391;-44
2023/04/11 05:04:49;;;;;;;11.07;3.88;;;7.60;99.90;;;;;;5058534;28;20132;-46
2023/04/11 05:07:17;;;;;;;15.30;2.83;;;7.60;99.90;;;;;;5059074;28;20052;-44
2023/04/11 05:09:43;;;;;;;12.30;2.78;;;7.60;99.90;;;;;;5064560;28;20052;-42
2023/04/11 05:12:08;;;;;;;13.40;3.00;;;7.50;99.90;;;;;;5062297;28;20051;-39
2023/04/11 05:14:34;;;;;;;10.88;2.70;;;7.50;99.90;;;;;;5075892;28;20048;-40
2023/04/11 05:17:00;;;;;;;7.50;2.22;;;7.50;99.90;;;;;;5068392;28;20052;-42
2023/04/11 05:19:25;;;;;;;11.48;3.65;;;7.50;99.90;;;;;;5057022;28;20058;-41
2023/04/11 05:21:51;;;;;;;13.52;2.55;;;7.50;99.90;;;;;;5056678;28;20182;-50
2023/04/11 05:24:17;;;;;;;10.32;3.20;;;7.50;99.90;;;;;;5068026;28;20127;-45
2023/04/11 05:26:42;;;;;;;10.70;2.65;;;7.50;99.90;;;;;;5076714;28;20086;-47
2023/04/11 05:29:09;;;;;;;10.93;3.25;;;7.50;99.90;;;;;;5089775;22;20079;-36
2023/04/11 05:31:36;;;;;;;10.98;2.83;;;7.50;99.90;;;;;;5076040;28;20498;-42
2023/04/11 05:34:02;;;;;;;17.38;3.33;;;7.60;99.90;;;;;;5068630;28;20055;-41
2023/04/11 05:36:28;;;;;;;13.18;2.95;;;7.60;99.90;;;;;;5073861;28;20472;-38
2023/04/11 05:38:54;;;;;;;20.02;3.13;;;7.60;99.90;;;;;;5057104;28;20044;-45
2023/04/11 05:41:19;;;;;;;9.13;2.40;;;7.60;99.90;;;;;;5056643;28;20056;-36
2023/04/11 05:43:45;;;;;;;11.40;2.85;;;7.60;99.90;;;;;;5057783;28;20469;-45
2023/04/11 05:46:11;;;;;;;10.23;2.42;;;7.70;99.90;;;;;;5075225;28;20312;-47
2023/04/11 05:48:37;;;;;;;11.15;2.47;;;7.70;99.90;;;;;;5076580;28;20052;-42
2023/04/11 05:51:04;;;;;;;11.15;2.92;;;7.70;99.90;;;;;;5076184;28;20052;-37
2023/04/11 05:53:30;;;;;;;9.48;2.83;;;7.70;99.90;;;;;;5076313;28;20040;-38
2023/04/11 05:55:56;;;;;;;14.18;3.00;;;7.70;99.90;;;;;;5075211;28;20044;-41
2023/04/11 05:58:23;;;;;;;11.38;2.65;;;7.70;99.90;;;;;;5075730;28;20048;-41
2023/04/11 06:00:49;;;;;;;15.20;2.95;;;7.70;99.90;;;;;;5076058;28;20097;-42
2023/04/11 06:03:15;;;;;;;19.55;3.15;;;7.70;99.90;;;;;;5076080;28;20047;-47
2023/04/11 06:05:41;;;;;;;10.00;3.47;;;7.60;99.90;;;;;;5056928;28;20112;-46
2023/04/11 06:08:08;;;;;;;10.10;2.67;;;7.70;99.90;;;;;;5076368;28;20087;-45
2023/04/11 06:10:34;;;;;;;13.52;2.75;;;7.70;99.90;;;;;;5055873;28;20041;-40
2023/04/11 06:13:00;;;;;;;12.52;3.47;;;7.70;99.90;;;;;;5068527;28;20051;-39
2023/04/11 06:15:26;;;;;;;11.38;2.90;;;7.70;99.90;;;;;;5074683;28;20051;-37
2023/04/11 06:17:52;;;;;;;14.23;2.50;;;7.80;99.90;;;;;;5073161;28;20059;-48
2023/04/11 06:20:19;;;;;;;13.43;2.85;;;7.70;99.90;;;;;;5062252;28;20078;-39
2023/04/11 06:22:45;;;;;;;14.52;2.83;;;7.80;99.90;;;;;;5075292;28;20051;-48
2023/04/11 06:25:11;;;;;;;14.55;3.50;;;7.80;99.90;;;;;;5074166;28;20052;-38
2023/04/11 06:27:37;;;;;;;14.35;3.00;;;7.80;99.90;;;;;;5056816;28;20855;-42
2023/04/11 06:30:03;;;;;;;12.25;3.00;;;7.80;99.90;;;;;;5074803;28;20048;-40
2023/04/11 06:32:29;;;;;;;14.85;4.55;;;7.80;99.90;;;;;;5067553;28;20052;-42
2023/04/11 06:34:55;;;;;;;13.18;3.10;;;7.90;99.90;;;;;;5053030;28;20503;-41
2023/04/11 06:37:22;;;;;;;11.25;2.65;;;7.90;99.90;;;;;;5054417;28;20044;-47
2023/04/11 06:39:48;;;;;;;17.30;3.75;;;7.90;99.90;;;;;;5054279;28;20048;-42
2023/04/11 06:42:14;;;;;;;22.40;3.33;;;8.00;99.90;;;;;;5054689;28;20389;-46
2023/04/11 06:44:39;;;;;;;18.08;3.53;;;8.00;99.90;;;;;;5054201;28;20055;-44
2023/04/11 06:47:05;;;;;;;15.90;2.85;;;8.10;99.90;;;;;;5054157;28;20075;-43
2023/04/11 06:49:32;;;;;;;14.40;3.45;;;8.20;99.90;;;;;;5031706;28;20324;-39
2023/04/11 06:51:58;;;;;;;17.50;3.08;;;8.20;99.90;;;;;;5035582;28;20049;-42
2023/04/11 06:54:24;;;;;;;16.05;3.45;;;8.30;99.90;;;;;;5048629;28;20491;-47
2023/04/11 06:56:50;;;;;;;13.88;3.22;;;8.40;99.90;;;;;;5009219;28;20052;-46
2023/04/11 06:59:18;;;;;;;15.50;3.47;;;8.40;99.90;;;;;;5025361;28;20053;-43
2023/04/11 07:01:44;;;;;;;13.70;4.45;;;8.50;99.90;;;;;;5052369;28;20045;-49
2023/04/11 07:04:10;;;;;;;10.57;2.53;;;8.80;99.90;;;;;;5051986;28;20040;-47
2023/04/11 07:06:36;;;;;;;11.40;3.15;;;9.00;99.90;;;;;;5053062;28;20052;-46
2023/04/11 07:09:02;;;;;;;15.10;3.78;;;9.20;99.90;;;;;;5052895;28;20155;-45
2023/04/11 07:11:28;;;;;;;17.92;3.15;;;9.30;99.90;;;;;;5053382;28;20364;-42
2023/04/11 07:13:55;;;;;;;14.40;2.80;;;9.20;99.90;;;;;;5046849;28;20051;-45
2023/04/11 07:16:21;;;;;;;15.27;3.40;;;9.10;99.90;;;;;;5043947;28;20053;-48
2023/04/11 07:18:47;;;;;;;12.18;3.30;;;9.00;99.90;;;;;;5028504;28;20480;-39
2023/04/11 07:21:13;;;;;;;11.35;2.80;;;8.90;99.90;;;;;;5047316;28;20048;-43
2023/04/11 07:23:40;;;;;;;9.98;2.47;;;8.90;99.90;;;;;;5047821;28;20527;-40
2023/04/11 07:26:09;;;;;;;14.65;3.38;;;8.90;99.90;;;;;;5027951;28;20052;-39
2023/04/11 07:28:39;;;;;;;15.13;2.70;;;8.90;99.90;;;;;;5039565;28;20923;-44
2023/04/11 07:31:08;;;;;;;14.27;3.83;;;8.90;99.90;;;;;;5049668;28;20803;-42
2023/04/11 07:33:36;;;;;;;14.15;3.22;;;8.90;99.90;;;;;;5050397;28;20128;-42
2023/04/11 07:36:05;;;;;;;11.80;2.92;;;8.90;99.90;;;;;;5039495;28;20048;-39
2023/04/11 07:38:33;;;;;;;12.45;2.53;;;9.00;99.90;;;;;;5044295;28;20950;-42
2023/04/11 07:41:01;;;;;;;9.68;2.60;;;9.00;99.90;;;;;;5027443;28;20040;-45
2023/04/11 07:43:28;;;;;;;10.55;2.67;;;9.00;99.90;;;;;;5054221;28;20081;-38
2023/04/11 07:45:55;;;;;;;12.38;2.72;;;8.90;99.90;;;;;;5052327;28;20117;-45
2023/04/11 07:48:21;;;;;;;13.18;2.55;;;9.00;99.90;;;;;;5053510;28;20586;-48
2023/04/11 07:50:47;;;;;;;14.35;2.92;;;8.90;99.90;;;;;;5035740;28;20426;-36
2023/04/11 07:53:13;;;;;;;11.70;3.63;;;9.00;99.90;;;;;;5054310;28;20044;-36
2023/04/11 07:55:39;;;;;;;13.73;3.47;;;9.10;99.90;;;;;;5053712;28;20052;-47
2023/04/11 07:58:05;;;;;;;18.10;3.47;;;9.20;99.90;;;;;;5054047;28;20494;-37
2023/04/11 08:00:32;;;;;;;16.88;3.88;;;9.20;99.90;;;;;;5056525;28;20586;-43
2023/04/11 08:03:04;;;;;;;11.98;2.80;;;9.30;99.90;;;;;;5058689;28;20128;-36
2023/04/11 08:05:33;;;;;;;11.13;2.40;;;9.40;99.90;;;;;;5057252;28;20048;-45
2023/04/11 08:07:59;;;;;;;14.95;3.88;;;9.60;99.90;;;;;;5058371;28;20051;-45
2023/04/11 08:10:25;;;;;;;14.07;2.85;;;9.80;99.90;;;;;;5057466;28;20114;-40
2023/04/11 08:12:51;;;;;;;11.65;3.03;;;9.90;99.90;;;;;;5069228;28;20036;-48
2023/04/11 08:15:17;;;;;;;12.65;2.47;;;9.80;99.90;;;;;;5072046;28;20059;-39
2023/04/11 08:17:44;;;;;;;12.57;2.47;;;9.70;99.90;;;;;;5058839;28;20450;-42
2023/04/11 08:20:11;;;;;;;15.05;3.78;;;9.50;99.90;;;;;;5062560;28;20126;-40
2023/04/11 08:22:43;;;;;;;14.60;2.72;;;9.30;99.90;;;;;;5038845;28;20060;-38
2023/04/11 08:25:10;;;;;;;18.50;3.00;;;9.50;99.90;;;;;;5075772;28;20281;-36
2023/04/11 08:27:36;;;;;;;10.18;2.40;;;9.90;99.90;;;;;;5076667;28;20055;-46
2023/04/11 08:30:03;;;;;;;9.73;2.08;;;10.30;99.90;;;;;;5071013;28;20151;-39
2023/04/11 08:32:29;;;;;;;10.27;2.42;;;10.40;99.90;;;;;;5047232;28;20584;-45
2023/04/11 08:34:54;;;;;;;11.25;3.10;;;10.50;99.90;;;;;;5043377;28;20040;-47
2023/04/11 08:37:20;;;;;;;12.57;3.10;;;10.30;99.90;;;;;;5063310;28;20044;-45
2023/04/11 08:39:46;;;;;;;12.10;3.10;;;10.20;99.90;;;;;;5020537;28;20472;-44
2023/04/11 08:42:29;;;;;;;11.88;2.65;;;10.30;99.90;;;;;;5049671;28;20048;-48
2023/04/11 08:45:04;;;;;;;19.75;4.47;;;10.70;99.90;;;;;;5025087;28;20133;-42
2023/04/11 08:47:30;;;;;;;15.63;3.17;;;11.00;99.90;;;;;;5038447;28;20044;-40
2023/04/11 08:49:55;;;;;;;12.75;2.78;;;11.20;99.90;;;;;;5056287;28;20040;-45
2023/04/11 08:52:22;;;;;;;10.80;2.60;;;11.20;99.90;;;;;;5056584;28;20527;-50
2023/04/11 08:54:53;;;;;;;14.30;2.90;;;11.10;99.90;;;;;;5056240;28;20044;-39
2023/04/11 08:57:30;;;;;;;14.05;3.08;;;11.00;99.90;;;;;;5058309;28;20724;-46
2023/04/11 09:00:22;;;;;;;10.90;2.55;;;10.80;99.90;;;;;;5034367;28;20427;-42
2023/04/11 09:02:54;;;;;;;11.55;2.95;;;10.70;99.90;;;;;;5076427;28;20044;-40
2023/04/11 09:05:30;;;;;;;12.93;2.53;;;10.80;99.90;;;;;;5062220;28;20045;-42
2023/04/11 09:08:07;;;;;;;15.63;3.67;;;11.00;99.90;;;;;;5047784;28;20049;-44
2023/04/11 09:10:33;;;;;;;12.27;3.40;;;10.90;99.90;;;;;;5055326;28;20044;-43
2023/04/11 09:12:59;;;;;;;10.65;3.00;;;10.80;99.90;;;;;;5056420;28;20040;-39
2023/04/11 09:15:28;;;;;;;10.68;2.65;;;10.90;99.90;;;;;;5060303;28;20125;-40
2023/04/11 09:17:55;;;;;;;12.27;2.63;;;11.10;99.90;;;;;;5070561;28;20044;-38
2023/04/11 09:20:24;;;;;;;8.73;2.67;;;11.40;99.90;;;;;;5075987;28;20044;-40
2023/04/11 09:22:51;;;;;;;15.93;2.83;;;11.50;99.90;;;;;;5076403;28;20044;-42
2023/04/11 09:25:21;;;;;;;13.85;3.17;;;11.60;99.90;;;;;;5075585;28;20052;-39
2023/04/11 09:27:48;;;;;;;10.80;2.60;;;11.80;99.90;;;;;;5057174;28;20506;-41
2023/04/11 09:30:25;;;;;;;10.52;2.40;;;11.80;99.90;;;;;;5049307;28;20635;-44
2023/04/11 09:32:52;;;;;;;11.90;2.42;;;11.50;99.90;;;;;;5057489;28;20368;-41
2023/04/11 09:35:24;;;;;;;11.27;3.17;;;11.30;99.90;;;;;;5055363;28;20040;-36
2023/04/11 09:37:59;;;;;;;10.55;2.55;;;11.10;99.90;;;;;;5043927;28;20044;-38
2023/04/11 09:40:26;;;;;;;11.43;2.95;;;11.30;99.90;;;;;;5059500;28;20353;-38
2023/04/11 09:42:56;;;;;;;10.65;2.45;;;11.30;99.90;;;;;;5074852;28;20164;-44
2023/04/11 09:45:23;;;;;;;12.13;3.30;;;11.60;99.90;;;;;;5073395;28;20059;-41
2023/04/11 09:47:51;;;;;;;11.45;2.42;;;11.80;99.90;;;;;;5057598;28;20052;-43
2023/04/11 09:50:18;;;;;;;15.63;3.70;;;12.10;99.90;;;;;;5065530;28;20101;-41
2023/04/11 09:52:44;;;;;;;11.07;2.58;;;12.40;99.90;;;;;;5046561;28;20072;-42
2023/04/11 09:55:17;;;;;;;7.80;2.50;;;12.30;99.90;;;;;;5053141;28;20048;-46
2023/04/11 09:57:52;;;;;;;13.27;2.93;;;12.40;99.90;;;;;;5055551;28;20049;-39
2023/04/11 10:00:20;;;;;;;10.80;2.90;;;12.40;99.90;;;;;;5056539;28;20044;-40
2023/04/11 10:02:48;;;;;;;9.68;2.80;;;12.30;99.90;;;;;;5054765;28;20055;-45
2023/04/11 10:05:14;;;;;;;15.13;2.00;;;12.50;99.90;;;;;;5059631;28;20074;-38
2023/04/11 10:08:07;;;;;;;12.35;2.60;;;12.70;99.90;;;;;;5070916;28;20129;-38
2023/04/11 10:10:34;;;;;;;14.35;2.97;;;12.90;99.90;;;;;;5051368;28;20083;-36
2023/04/11 10:13:00;;;;;;;12.02;3.13;;;12.80;99.90;;;;;;5044557;28;20162;-43
2023/04/11 10:15:26;;;;;;;9.30;2.70;;;12.60;99.90;;;;;;5073923;28;20047;-49
2023/04/11 10:18:10;;;;;;;13.50;2.88;;;12.50;99.90;;;;;;5057008;28;20067;-46
2023/04/11 10:20:42;;;;;;;9.90;2.45;;;12.60;99.90;;;;;;5052570;28;20048;-45
2023/04/11 10:23:09;;;;;;;11.20;2.90;;;12.70;99.90;;;;;;5054229;28;20071;-39
2023/04/11 10:25:52;;;;;;;14.15;2.50;;;12.60;99.90;;;;;;5049766;28;20049;-44
2023/04/11 10:28:44;;;;;;;16.67;2.75;;;12.60;99.90;;;;;;5067488;28;20056;-43
2023/04/11 10:31:16;;;;;;;12.13;3.25;;;12.60;99.90;;;;;;5069698;28;20540;-43
2023/04/11 10:34:12;;;;;;;13.73;2.75;;;12.50;99.90;;;;;;5074233;28;20059;-45
2023/04/11 10:37:07;;;;;;;9.32;2.67;;;12.30;99.90;;;;;;5074846;28;20044;-42
2023/04/11 10:39:54;;;;;;;12.57;2.92;;;12.20;99.90;;;;;;5056321;28;20193;-38
2023/04/11 10:42:33;;;;;;;11.18;2.50;;;12.30;99.90;;;;;;5035611;28;20044;-40
2023/04/11 10:45:29;;;;;;;14.25;2.65;;;12.60;99.90;;;;;;5071006;28;20069;-37
2023/04/11 10:47:55;;;;;;;10.65;2.22;;;12.40;99.90;;;;;;5043234;28;20076;-50
2023/04/11 10:50:29;;;;;;;14.63;3.25;;;12.00;99.90;;;;;;5054998;28;20410;-50
2023/04/11 10:53:01;;;;;;;9.90;2.80;;;12.10;99.90;;;;;;5055921;28;20049;-48
2023/04/11 10:55:28;;;;;;;9.50;2.45;;;12.20;99.90;;;;;;5053042;28;20499;-45
2023/04/11 10:58:10;;;;;;;13.73;2.90;;;12.20;99.90;;;;;;5053957;28;20109;-42
2023/04/11 11:00:51;;;;;;;12.05;2.72;;;12.20;99.90;;;;;;5042665;28;20082;-44
2023/04/11 11:03:38;;;;;;;11.40;2.50;;;12.30;99.90;;;;;;5053861;28;20128;-44
2023/04/11 11:06:06;;;;;;;11.13;2.50;;;12.60;99.90;;;;;;5064298;22;20147;-48
2023/04/11 11:08:36;;;;;;;15.05;2.92;;;12.80;99.90;;;;;;5053100;28;20044;-43
2023/04/11 11:11:07;;;;;;;9.68;2.20;;;13.00;99.90;;;;;;5036178;28;20052;-46
2023/04/11 11:13:40;;;;;;;12.30;2.53;;;13.00;99.90;;;;;;5054710;28;20807;-43
2023/04/11 11:16:07;;;;;;;13.68;2.75;;;13.10;99.90;;;;;;5055010;28;20561;-48
2023/04/11 11:18:33;;;;;;;13.68;3.30;;;13.10;99.90;;;;;;5036284;28;20251;-42
2023/04/11 11:20:59;;;;;;;14.02;2.80;;;12.80;99.90;;;;;;5055141;28;20050;-49
2023/04/11 11:23:28;;;;;;;15.48;3.38;;;12.50;99.90;;;;;;5054893;28;20044;-47
2023/04/11 11:25:58;;;;;;;10.10;2.60;;;12.30;99.90;;;;;;5059186;28;20086;-45
2023/04/11 11:28:24;;;;;;;11.30;2.67;;;12.00;99.90;;;;;;5054028;28;20048;-43
2023/04/11 11:30:55;;;;;;;11.77;2.78;;;12.00;99.90;;;;;;5058574;28;20040;-36
2023/04/11 11:33:25;;;;;;;10.07;2.20;;;11.90;99.90;;;;;;5044540;28;20072;-47
2023/04/11 11:36:00;;;;;;;11.93;2.75;;;11.90;99.90;;;;;;5077504;28;20044;-46
2023/04/11 11:38:28;;;;;;;7.72;2.63;;;12.00;99.90;;;;;;5078937;28;20044;-47
2023/04/11 11:40:54;;;;;;;14.70;3.15;;;12.00;99.90;;;;;;5070687;28;20048;-40
2023/04/11 11:43:20;;;;;;;11.65;2.92;;;12.00;99.90;;;;;;5045284;28;20087;-50
2023/04/11 11:45:46;;;;;;;11.77;3.65;;;12.30;99.90;;;;;;5060203;28;20233;-45
2023/04/11 11:48:20;;;;;;;10.27;2.45;;;12.50;99.90;;;;;;5066905;28;20059;-45
2023/04/11 11:50:45;;;;;;;13.93;2.83;;;12.80;99.90;;;;;;5073423;28;20044;-45
2023/04/11 11:53:15;;;;;;;11.65;3.17;;;12.90;99.90;;;;;;5062446;28;20708;-44
2023/04/11 11:55:42;;;;;;;9.93;3.35;;;13.10;99.90;;;;;;5030361;28;20445;-43
2023/04/11 11:58:08;;;;;;;11.23;2.63;;;13.20;99.90;;;;;;5046168;28;20491;-39
2023/04/11 12:00:37;;;;;;;8.90;2.92;;;13.30;99.90;;;;;;5049904;28;20449;-40
2023/04/11 12:03:03;;;;;;;10.90;2.90;;;13.10;99.90;;;;;;5054808;28;20055;-40
2023/04/11 12:05:33;;;;;;;13.52;3.17;;;13.10;99.90;;;;;;5074710;28;20482;-42
2023/04/11 12:08:03;;;;;;;13.63;2.67;;;12.90;99.90;;;;;;5063649;28;20052;-43
2023/04/11 12:10:48;;;;;;;10.23;2.38;;;12.80;99.90;;;;;;5077097;28;20048;-39
2023/04/11 12:13:27;;;;;;;14.82;2.78;;;12.50;99.90;;;;;;5077295;28;20048;-44
2023/04/11 12:15:59;;;;;;;11.13;2.17;;;12.40;99.90;;;;;;5077050;28;20056;-48
2023/04/11 12:18:27;;;;;;;16.10;3.07;;;12.40;99.90;;;;;;5057891;28;20052;-37
2023/04/11 12:20:53;;;;;;;15.30;3.33;;;12.40;99.90;;;;;;5072835;28;20059;-45
2023/04/11 12:23:19;;;;;;;10.77;2.80;;;12.40;99.90;;;;;;5077802;28;20461;-39
2023/04/11 12:25:45;;;;;;;13.57;2.67;;;12.50;99.90;;;;;;5054916;28;20120;-44
2023/04/11 12:28:11;;;;;;;10.40;2.42;;;12.60;99.90;;;;;;5078233;28;20165;-43
2023/04/11 12:30:37;;;;;;;12.57;2.92;;;12.70;99.90;;;;;;5062881;28;20174;-41
2023/04/11 12:33:04;;;;;;;12.45;3.28;;;12.70;99.90;;;;;;5077052;28;20048;-46
2023/04/11 12:35:30;;;;;;;11.95;2.78;;;12.30;99.90;;;;;;5076427;28;20082;-42
2023/04/11 12:37:55;;;;;;;15.63;4.13;;;12.30;99.90;;;;;;5077600;28;20052;-52
2023/04/11 12:40:21;;;;;;;13.38;3.10;;;12.30;99.90;;;;;;5070152;28;20044;-51
2023/04/11 12:42:47;;;;;;;15.20;2.88;;;12.50;99.90;;;;;;5067150;28;20040;-40
2023/04/11 12:45:15;;;;;;;16.38;3.17;;;12.30;99.90;;;;;;5068304;28;20052;-43
2023/04/11 12:47:41;;;;;;;12.75;3.58;;;12.20;99.90;;;;;;5077617;28;20055;-41
2023/04/11 12:50:09;;;;;;;13.23;2.75;;;12.20;99.90;;;;;;5074243;28;20050;-47